createdAt,value
2022-10-14T00:01:27.068Z,91.25
2022-10-14T00:04:06.369Z,91.12
2022-10-14T00:06:35.074Z,91.15
2022-10-14T00:09:08.738Z,91.18
2022-10-14T00:11:38.024Z,91.22
2022-10-14T00:14:14.439Z,91.31
2022-10-14T00:16:46.707Z,91.41
2022-10-14T00:19:15.488Z,91.67
2022-10-14T00:21:45.919Z,91.67
2022-10-14T00:24:17.102Z,91.61
2022-10-14T00:27:23.309Z,91.42
2022-10-14T00:29:51.876Z,91.65
2022-10-14T00:32:20.168Z,91.60
2022-10-14T00:34:48.402Z,91.57
2022-10-14T00:37:16.643Z,91.66
2022-10-14T00:39:44.830Z,91.80
2022-10-14T00:42:15.527Z,91.97
2022-10-14T00:44:43.656Z,92.15
2022-10-14T00:47:12.789Z,92.30
2022-10-14T00:49:44.400Z,92.29
2022-10-14T00:52:22.271Z,92.50
2022-10-14T00:54:56.795Z,92.59
2022-10-14T00:57:26.739Z,92.75
2022-10-14T01:00:02.635Z,92.72
2022-10-14T01:02:31.039Z,92.77
2022-10-14T01:05:01.501Z,92.59
2022-10-14T01:08:21.212Z,92.61
2022-10-14T01:11:16.314Z,92.90
2022-10-14T01:14:28.736Z,92.90
2022-10-14T01:17:04.109Z,93.02
2022-10-14T01:19:47.254Z,93.05
2022-10-14T01:22:33.011Z,93.15
2022-10-14T01:25:09.317Z,93.11
2022-10-14T01:28:03.843Z,93.04
2022-10-14T01:30:38.827Z,93.06
2022-10-14T01:33:19.913Z,93.02
2022-10-14T01:36:29.936Z,93.01
2022-10-14T01:39:15.395Z,93.14
2022-10-14T01:41:50.900Z,93.23
2022-10-14T01:44:23.015Z,93.23
2022-10-14T01:46:54.773Z,93.04
2022-10-14T01:49:38.901Z,93.15
2022-10-14T01:52:28.492Z,93.28
2022-10-14T01:55:09.288Z,93.05
2022-10-14T01:57:41.818Z,92.91
2022-10-14T02:00:11.502Z,93.15
2022-10-14T02:02:41.972Z,93.37
2022-10-14T02:05:55.840Z,93.48
2022-10-14T02:09:00.990Z,93.61
2022-10-14T02:11:57.769Z,93.79
2022-10-14T02:15:29.733Z,94.17
2022-10-14T02:18:19.321Z,94.28
2022-10-14T02:20:57.348Z,93.97
2022-10-14T02:23:37.675Z,94.16
2022-10-14T02:26:08.330Z,94.22
2022-10-14T02:28:38.044Z,94.19
2022-10-14T02:31:14.028Z,94.27
2022-10-14T02:33:49.141Z,94.05
2022-10-14T02:36:21.864Z,94.11
2022-10-14T02:38:50.519Z,94.23
2022-10-14T02:41:23.131Z,94.43
2022-10-14T02:43:51.526Z,94.28
2022-10-14T02:46:22.754Z,94.49
2022-10-14T02:48:51.323Z,94.51
2022-10-14T02:51:19.587Z,94.47
2022-10-14T02:53:48.061Z,94.70
2022-10-14T02:56:18.231Z,94.69
2022-10-14T02:58:46.543Z,94.56
2022-10-14T03:01:14.830Z,94.68
2022-10-14T03:03:43.032Z,94.60
2022-10-14T03:06:11.250Z,94.73
2022-10-14T03:08:39.669Z,94.93
2022-10-14T03:11:08.062Z,95.29
2022-10-14T03:23:13.034Z,95.00
2022-10-14T03:25:45.180Z,95.09
2022-10-14T03:28:13.716Z,95.21
2022-10-14T03:30:41.981Z,95.01
2022-10-14T03:33:14.277Z,95.16
2022-10-14T03:35:43.186Z,95.28
2022-10-14T03:38:11.572Z,94.98
2022-10-14T03:40:39.774Z,95.08
2022-10-14T03:43:08.058Z,95.33
2022-10-14T03:45:36.325Z,95.51
2022-10-14T03:48:04.821Z,95.78
2022-10-14T03:50:33.107Z,95.80
2022-10-14T03:53:01.387Z,95.85
2022-10-14T03:55:30.022Z,96.27
2022-10-14T03:57:58.244Z,96.52
2022-10-14T04:00:26.486Z,96.46
2022-10-14T04:02:54.691Z,96.46
2022-10-14T04:05:22.932Z,96.53
2022-10-14T04:07:51.632Z,96.45
2022-10-14T04:10:19.860Z,96.56
2022-10-14T04:12:48.470Z,96.50
2022-10-14T04:15:17.407Z,96.59
2022-10-14T04:17:45.695Z,96.71
2022-10-14T04:20:14.242Z,96.85
2022-10-14T04:22:42.763Z,97.09
2022-10-14T04:25:11.240Z,97.10
2022-10-14T04:27:39.531Z,97.30
2022-10-14T04:30:09.651Z,97.28
2022-10-14T04:32:37.977Z,97.35
2022-10-14T04:35:06.658Z,97.36
2022-10-14T04:37:34.965Z,97.48
2022-10-14T04:40:04.771Z,97.48
2022-10-14T04:42:33.015Z,97.72
2022-10-14T04:45:02.103Z,97.80
2022-10-14T04:47:30.670Z,97.70
2022-10-14T04:49:58.951Z,97.61
2022-10-14T04:52:27.394Z,97.62
2022-10-14T04:54:55.783Z,97.70
2022-10-14T04:57:24.032Z,97.65
2022-10-14T04:59:52.253Z,97.48
2022-10-14T05:02:20.831Z,97.38
2022-10-14T05:04:49.364Z,97.52
2022-10-14T05:07:17.806Z,97.29
2022-10-14T05:09:49.620Z,97.41
2022-10-14T05:12:18.942Z,97.50
2022-10-14T05:14:47.372Z,97.46
2022-10-14T05:17:15.782Z,97.71
2022-10-14T05:19:44.131Z,97.71
2022-10-14T05:22:12.673Z,97.72
2022-10-14T05:24:41.042Z,97.77
2022-10-14T05:27:09.423Z,97.93
2022-10-14T05:29:37.667Z,97.79
2022-10-14T05:32:05.969Z,97.85
2022-10-14T05:34:35.223Z,98.11
2022-10-14T05:37:03.657Z,98.30
2022-10-14T05:39:31.892Z,98.43
2022-10-14T05:42:00.132Z,98.69
2022-10-14T05:44:28.393Z,98.80
2022-10-14T05:46:56.694Z,98.78
2022-10-14T05:49:24.944Z,99.05
2022-10-14T05:51:53.483Z,99.21
2022-10-14T05:54:21.741Z,99.36
2022-10-14T05:56:49.997Z,99.49
2022-10-14T05:59:18.246Z,99.69
2022-10-14T06:01:46.493Z,99.84
2022-10-14T06:04:20.195Z,99.72
2022-10-14T06:06:48.607Z,99.80
2022-10-14T06:09:17.649Z,99.74
2022-10-14T06:11:46.309Z,99.89
2022-10-14T06:14:14.543Z,99.80
2022-10-14T06:16:42.776Z,99.76
2022-10-14T06:19:11.195Z,99.91
2022-10-14T06:21:39.481Z,99.98
2022-10-14T06:24:08.295Z,99.94
2022-10-14T06:26:36.994Z,99.96
2022-10-14T06:29:05.424Z,100.00
2022-10-14T06:31:33.821Z,100.00
2022-10-14T06:34:05.977Z,100.00
2022-10-14T06:36:35.534Z,100.00
2022-10-14T06:39:05.199Z,100.00
2022-10-14T06:41:33.549Z,100.00
2022-10-14T06:44:01.760Z,100.00
2022-10-14T06:48:07.413Z,100.00
2022-10-14T06:50:36.719Z,100.00
2022-10-14T06:53:05.007Z,100.00
2022-10-14T06:55:33.302Z,100.00
2022-10-14T06:58:01.611Z,100.00
2022-10-14T07:00:29.912Z,100.00
2022-10-14T07:02:59.648Z,100.00
2022-10-14T07:05:28.071Z,100.00
2022-10-14T07:07:58.746Z,100.00
2022-10-14T07:10:27.139Z,100.00
2022-10-14T07:12:56.307Z,100.00
2022-10-14T07:15:24.595Z,100.00
2022-10-14T07:17:52.815Z,100.00
2022-10-14T07:20:21.121Z,100.00
2022-10-14T07:22:49.333Z,100.00
2022-10-14T07:25:17.577Z,100.00
2022-10-14T07:27:45.811Z,100.00
2022-10-14T07:30:16.771Z,100.00
2022-10-14T07:32:46.105Z,100.00
2022-10-14T07:35:16.708Z,100.00
2022-10-14T07:37:46.628Z,100.00
2022-10-14T07:40:14.997Z,100.00
2022-10-14T07:42:43.263Z,100.00
2022-10-14T07:45:17.702Z,100.00
2022-10-14T07:47:49.776Z,100.00
2022-10-14T07:50:18.751Z,100.00
2022-10-14T07:52:47.080Z,100.00
2022-10-14T07:55:15.410Z,100.00
2022-10-14T07:57:43.778Z,100.00
2022-10-14T08:00:12.496Z,100.00
2022-10-14T08:02:40.732Z,100.00
2022-10-14T08:05:32.893Z,100.00
2022-10-14T08:07:57.284Z,100.00
2022-10-14T08:10:25.522Z,100.00
2022-10-14T08:12:53.864Z,100.00
2022-10-14T08:15:22.091Z,100.00
2022-10-14T08:17:50.294Z,100.00
2022-10-14T08:20:18.657Z,100.00
2022-10-14T08:22:47.060Z,100.00
2022-10-14T08:25:15.363Z,100.00
2022-10-14T08:27:43.555Z,100.00
2022-10-14T08:30:12.043Z,100.00
2022-10-14T08:32:40.307Z,99.97
2022-10-14T08:35:11.110Z,99.36
2022-10-14T08:37:39.368Z,98.89
2022-10-14T08:40:11.449Z,98.67
2022-10-14T08:43:17.025Z,97.84
2022-10-14T08:45:55.583Z,97.32
2022-10-14T08:48:28.727Z,96.91
2022-10-14T08:51:09.981Z,96.04
2022-10-14T08:53:46.684Z,95.29
2022-10-14T08:56:17.468Z,95.18
2022-10-14T08:58:52.679Z,94.57
2022-10-14T09:01:36.413Z,94.26
2022-10-14T09:04:14.328Z,93.75
2022-10-14T09:06:46.914Z,92.46
2022-10-14T09:09:45.324Z,91.87
2022-10-14T09:12:20.718Z,90.76
2022-10-14T09:15:07.979Z,90.35
2022-10-14T09:18:02.107Z,89.98
2022-10-14T09:20:30.363Z,88.62
2022-10-14T09:23:04.772Z,88.65
2022-10-14T09:25:36.031Z,87.81
2022-10-14T09:28:04.446Z,87.17
2022-10-14T09:30:37.919Z,86.48
2022-10-14T09:33:07.334Z,85.14
2022-10-14T09:35:41.483Z,84.35
2022-10-14T09:38:12.889Z,83.82
2022-10-14T09:40:49.371Z,83.27
2022-10-14T09:43:21.680Z,83.00
2022-10-14T09:45:56.038Z,82.11
2022-10-14T09:48:40.228Z,80.95
2022-10-14T09:51:18.114Z,80.15
2022-10-14T09:53:55.108Z,79.63
2022-10-14T09:56:31.933Z,79.59
2022-10-14T09:59:02.221Z,79.15
2022-10-14T10:01:41.622Z,79.35
2022-10-14T10:04:31.859Z,79.06
2022-10-14T10:07:05.942Z,78.71
2022-10-14T10:09:34.738Z,78.39
2022-10-14T10:12:25.397Z,77.88
2022-10-14T10:14:58.622Z,77.47
2022-10-14T10:17:29.533Z,77.29
2022-10-14T10:20:31.751Z,77.28
2022-10-14T10:23:25.770Z,77.22
2022-10-14T10:25:54.054Z,76.81
2022-10-14T10:28:31.970Z,76.25
2022-10-14T10:31:18.221Z,75.51
2022-10-14T10:34:38.350Z,75.20
2022-10-14T10:37:30.077Z,74.57
2022-10-14T10:40:47.576Z,74.16
2022-10-14T10:43:44.292Z,73.61
2022-10-14T10:46:38.089Z,73.79
2022-10-14T10:49:38.570Z,73.07
2022-10-14T10:52:32.243Z,71.96
2022-10-14T10:55:13.371Z,71.22
2022-10-14T10:58:40.992Z,70.52
2022-10-14T11:01:36.773Z,69.72
2022-10-14T11:04:22.364Z,68.74
2022-10-14T11:07:49.616Z,68.57
2022-10-14T11:10:53.742Z,68.30
2022-10-14T11:13:35.008Z,68.31
2022-10-14T11:16:37.882Z,68.57
2022-10-14T11:19:40.912Z,68.66
2022-10-14T11:22:49.451Z,69.08
2022-10-14T11:25:56.411Z,68.81
2022-10-14T11:28:51.487Z,68.56
2022-10-14T11:31:57.217Z,67.78
2022-10-14T11:35:20.145Z,67.38
2022-10-14T11:38:09.789Z,67.33
2022-10-14T11:40:57.160Z,66.98
2022-10-14T11:43:39.570Z,66.81
2022-10-14T11:46:12.631Z,66.94
2022-10-14T11:48:51.379Z,66.72
2022-10-14T11:51:25.425Z,66.46
2022-10-14T11:54:11.365Z,66.63
2022-10-14T11:57:06.138Z,66.72
2022-10-14T11:59:51.261Z,65.81
2022-10-14T12:02:32.062Z,65.34
2022-10-14T12:05:22.783Z,65.34
2022-10-14T12:08:07.447Z,65.19
2022-10-14T12:10:44.553Z,64.89
2022-10-14T12:13:22.365Z,64.49
2022-10-14T12:15:53.220Z,64.47
2022-10-14T12:18:21.901Z,64.46
2022-10-14T12:21:05.099Z,64.61
2022-10-14T12:23:41.248Z,64.58
2022-10-14T12:26:24.924Z,64.14
2022-10-14T12:28:56.061Z,64.15
2022-10-14T12:31:31.904Z,63.71
2022-10-14T12:34:13.606Z,63.65
2022-10-14T12:36:45.400Z,63.77
2022-10-14T12:39:19.590Z,63.68
2022-10-14T12:42:12.640Z,63.92
2022-10-14T12:44:52.068Z,64.29
2022-10-14T12:47:35.315Z,64.42
2022-10-14T12:50:28.229Z,64.16
2022-10-14T12:53:01.458Z,64.43
2022-10-14T12:55:35.833Z,64.38
2022-10-14T12:58:05.994Z,64.22
2022-10-14T13:00:41.059Z,64.37
2022-10-14T13:03:28.003Z,64.61
2022-10-14T13:06:30.894Z,64.52
2022-10-14T13:09:31.805Z,64.60
2022-10-14T13:12:00.025Z,64.70
2022-10-14T13:15:01.639Z,64.96
2022-10-14T13:17:42.166Z,65.02
2022-10-14T13:20:35.411Z,65.23
2022-10-14T13:23:30.136Z,65.08
2022-10-14T13:26:32.386Z,64.69
2022-10-14T13:29:17.663Z,64.64
2022-10-14T13:31:59.555Z,64.48
2022-10-14T13:34:55.273Z,64.03
2022-10-14T13:37:41.953Z,63.74
2022-10-14T13:40:21.500Z,63.65
2022-10-14T13:43:13.241Z,63.71
2022-10-14T13:45:52.057Z,63.67
2022-10-14T13:48:34.344Z,63.44
2022-10-14T13:51:24.665Z,63.47
2022-10-14T13:54:21.970Z,63.03
2022-10-14T14:02:53.858Z,64.23
2022-10-14T14:05:25.359Z,64.29
2022-10-14T14:11:14.942Z,64.02
2022-10-14T14:13:58.872Z,64.31
2022-10-14T14:16:40.389Z,64.74
2022-10-14T14:19:28.173Z,64.78
2022-10-14T14:22:14.485Z,64.42
2022-10-14T14:24:43.698Z,64.09
2022-10-14T14:27:22.104Z,63.83
2022-10-14T14:29:54.965Z,63.59
2022-10-14T14:32:30.417Z,63.54
2022-10-14T14:35:00.665Z,63.74
2022-10-14T14:40:26.919Z,64.41
2022-10-14T14:43:02.638Z,64.12
2022-10-14T14:45:37.691Z,63.76
2022-10-14T14:48:07.800Z,62.91
2022-10-14T14:50:42.812Z,62.38
2022-10-14T14:53:16.892Z,62.19
2022-10-14T14:55:56.967Z,62.31
2022-10-14T14:58:45.022Z,62.34
2022-10-14T15:01:31.450Z,62.26
2022-10-14T15:04:13.273Z,62.70
2022-10-14T15:07:05.691Z,63.00
2022-10-14T15:09:56.126Z,63.35
2022-10-14T15:12:30.846Z,63.65
2022-10-14T15:15:04.046Z,64.19
2022-10-14T15:17:39.591Z,64.39
2022-10-14T15:20:10.866Z,64.51
2022-10-14T15:22:41.221Z,64.74
2022-10-14T15:25:21.704Z,65.03
2022-10-14T15:27:56.819Z,65.34
2022-10-14T15:30:34.616Z,65.69
2022-10-14T15:33:13.528Z,66.09
2022-10-14T15:35:44.624Z,66.31
2022-10-14T15:38:18.337Z,66.71
2022-10-14T15:40:48.464Z,67.07
2022-10-14T15:43:22.621Z,67.34
2022-10-14T15:46:13.329Z,67.57
2022-10-14T15:48:59.108Z,67.88
2022-10-14T15:51:30.773Z,68.20
2022-10-14T15:53:59.069Z,68.45
2022-10-14T15:56:29.907Z,68.68
2022-10-14T15:58:58.068Z,68.92
2022-10-14T16:01:26.506Z,69.16
2022-10-14T16:03:55.466Z,69.46
2022-10-14T16:06:24.607Z,69.67
2022-10-14T16:08:53.191Z,69.90
2022-10-14T16:11:29.697Z,70.23
2022-10-14T16:13:57.941Z,70.46
2022-10-14T16:16:41.009Z,70.67
2022-10-14T16:19:11.504Z,71.05
2022-10-14T16:21:40.444Z,71.37
2022-10-14T16:24:20.375Z,71.69
2022-10-14T16:26:49.260Z,72.05
2022-10-14T16:29:19.603Z,72.41
2022-10-14T16:31:50.064Z,72.67
2022-10-14T16:34:22.988Z,72.75
2022-10-14T16:36:52.113Z,73.05
2022-10-14T16:39:20.472Z,73.33
2022-10-14T16:41:49.850Z,73.45
2022-10-14T16:44:25.080Z,73.62
2022-10-14T16:47:14.903Z,73.91
2022-10-14T16:49:46.182Z,74.04
2022-10-14T16:52:16.210Z,74.32
2022-10-14T16:54:44.691Z,74.57
2022-10-14T16:57:13.276Z,74.77
2022-10-14T16:59:42.188Z,75.00
2022-10-14T17:02:15.843Z,75.30
2022-10-14T17:04:46.585Z,75.62
2022-10-14T17:07:17.419Z,75.79
2022-10-14T17:09:45.781Z,75.89
2022-10-14T17:12:14.456Z,76.08
2022-10-14T17:14:43.022Z,76.02
2022-10-14T17:17:13.113Z,76.47
2022-10-14T17:19:41.546Z,76.50
2022-10-14T17:22:10.474Z,76.69
2022-10-14T17:24:38.722Z,76.99
2022-10-14T17:27:07.033Z,77.06
2022-10-14T17:29:35.575Z,77.26
2022-10-14T17:32:04.406Z,77.37
2022-10-14T17:34:32.894Z,77.47
2022-10-14T17:37:02.106Z,77.45
2022-10-14T17:39:30.432Z,77.61
2022-10-14T17:41:58.820Z,77.85
2022-10-14T17:44:28.953Z,78.14
2022-10-14T17:46:57.344Z,78.31
2022-10-14T17:49:25.659Z,78.46
2022-10-14T17:51:53.883Z,78.60
2022-10-14T17:54:22.332Z,78.61
2022-10-14T17:56:51.117Z,78.90
2022-10-14T17:59:19.757Z,79.06
2022-10-14T18:02:02.162Z,79.15
2022-10-14T18:04:32.864Z,79.38
2022-10-14T18:07:01.470Z,79.84
2022-10-14T18:09:29.798Z,80.01
2022-10-14T18:12:13.600Z,80.08
2022-10-14T18:14:42.732Z,80.33
2022-10-14T18:17:12.539Z,80.27
2022-10-14T18:19:42.190Z,80.56
2022-10-14T18:22:11.321Z,80.64
2022-10-14T18:31:02.644Z,81.27
2022-10-14T18:33:36.971Z,81.40
2022-10-14T18:36:08.049Z,81.45
2022-10-14T18:38:37.637Z,81.82
2022-10-14T18:41:14.519Z,82.09
2022-10-14T18:43:43.253Z,82.38
2022-10-14T18:46:18.276Z,82.95
2022-10-14T18:48:53.443Z,83.23
2022-10-14T18:51:26.822Z,83.42
2022-10-14T18:54:00.759Z,83.88
2022-10-14T18:56:33.820Z,84.20
2022-10-14T18:59:15.151Z,84.24
2022-10-14T19:01:44.154Z,84.38
2022-10-14T19:04:15.165Z,84.38
2022-10-14T19:06:50.688Z,84.64
2022-10-14T19:09:23.999Z,84.83
2022-10-14T19:11:52.875Z,85.23
2022-10-14T19:14:22.270Z,85.50
2022-10-14T19:16:51.250Z,85.83
2022-10-14T19:19:20.246Z,86.09
2022-10-14T19:21:51.116Z,86.58
2022-10-14T19:24:19.332Z,86.60
2022-10-14T19:26:48.018Z,86.69
2022-10-14T19:29:16.804Z,86.98
2022-10-14T19:31:45.116Z,86.93
2022-10-14T19:34:16.263Z,86.93
2022-10-14T19:36:45.888Z,86.97
2022-10-14T19:39:16.564Z,86.97
2022-10-14T19:41:46.696Z,87.06
2022-10-14T19:44:16.506Z,87.04
2022-10-14T19:46:45.774Z,86.93
2022-10-14T19:49:15.788Z,86.97
2022-10-14T19:51:44.852Z,86.95
2022-10-14T19:54:15.225Z,87.00
2022-10-14T19:56:43.517Z,87.47
2022-10-14T19:59:13.631Z,87.72
2022-10-14T20:01:42.123Z,87.91
2022-10-14T20:04:10.887Z,88.43
2022-10-14T20:06:40.441Z,88.86
2022-10-14T20:09:12.501Z,89.22
2022-10-14T20:11:43.096Z,89.71
2022-10-14T20:14:11.386Z,89.70
2022-10-14T20:16:39.651Z,89.72
2022-10-14T20:19:08.114Z,90.13
2022-10-14T20:21:36.384Z,90.39
2022-10-14T20:24:05.261Z,90.71
2022-10-14T20:26:33.543Z,90.92
2022-10-14T20:29:01.885Z,91.26
2022-10-14T20:31:30.243Z,91.46
2022-10-14T20:33:58.528Z,91.73
2022-10-14T20:36:26.781Z,91.99
2022-10-14T20:38:55.123Z,92.09
2022-10-14T20:41:27.200Z,92.59
2022-10-14T20:43:56.514Z,92.80
2022-10-14T20:46:25.337Z,92.73
2022-10-14T20:48:56.713Z,92.96
2022-10-14T20:51:26.410Z,93.09
2022-10-14T20:54:01.769Z,93.13
2022-10-14T20:56:34.596Z,93.20
2022-10-14T20:59:07.853Z,93.16
2022-10-14T21:01:37.132Z,93.04
2022-10-14T21:04:07.974Z,93.31
2022-10-14T21:06:38.952Z,93.25
2022-10-14T21:09:07.834Z,93.25
2022-10-14T21:11:36.086Z,93.16
2022-10-14T21:14:04.519Z,93.18
2022-10-14T21:16:35.658Z,93.11
2022-10-14T21:19:09.920Z,93.11
2022-10-14T21:21:41.766Z,93.00
2022-10-14T21:24:18.223Z,93.19
2022-10-14T21:26:50.486Z,93.25
2022-10-14T21:29:20.564Z,93.33
2022-10-14T21:31:49.649Z,93.24
2022-10-14T21:34:17.901Z,93.20
2022-10-14T21:36:46.128Z,93.18
2022-10-14T21:39:18.090Z,93.11
2022-10-14T21:41:46.731Z,93.14
2022-10-14T21:44:22.268Z,93.09
2022-10-14T21:46:50.591Z,93.20
2022-10-14T21:49:18.867Z,93.09
2022-10-14T21:51:47.109Z,93.11
2022-10-14T21:54:15.396Z,93.09
2022-10-14T21:56:43.770Z,93.09
2022-10-14T21:59:12.410Z,93.15
2022-10-14T22:01:42.036Z,93.15
2022-10-14T22:04:10.961Z,93.27
2022-10-14T22:06:39.198Z,93.20
2022-10-14T22:09:07.971Z,93.35
2022-10-14T22:11:41.527Z,93.25
2022-10-14T22:14:18.814Z,93.29
2022-10-14T22:16:48.428Z,93.15
2022-10-14T22:19:16.706Z,93.19
2022-10-14T22:21:46.470Z,93.23
2022-10-14T22:24:14.750Z,93.32
2022-10-14T22:26:42.986Z,93.57
2022-10-14T22:29:16.881Z,93.60
2022-10-14T22:31:46.507Z,93.38
2022-10-14T22:34:17.227Z,93.36
2022-10-14T22:36:45.593Z,93.22
2022-10-14T22:39:16.580Z,93.06
2022-10-14T22:41:44.836Z,93.27
2022-10-14T22:44:13.129Z,92.73
2022-10-14T22:46:41.407Z,92.61
2022-10-14T22:49:09.665Z,92.52
2022-10-14T22:51:40.662Z,92.64
2022-10-14T22:54:10.702Z,92.88
2022-10-14T22:56:40.293Z,93.02
2022-10-14T22:59:11.462Z,93.16
2022-10-14T23:01:42.568Z,93.26
2022-10-14T23:04:11.830Z,93.54
2022-10-14T23:06:43.813Z,93.65
2022-10-14T23:09:12.341Z,93.57
2022-10-14T23:11:40.691Z,93.72
2022-10-14T23:14:09.219Z,93.73
2022-10-14T23:16:38.917Z,93.79
2022-10-14T23:19:07.448Z,93.82
2022-10-14T23:21:37.756Z,93.90
2022-10-14T23:24:11.373Z,93.92
2022-10-14T23:26:39.717Z,93.98
2022-10-14T23:29:11.716Z,94.03
2022-10-14T23:31:41.526Z,94.05
2022-10-14T23:34:13.162Z,94.12
2022-10-14T23:36:41.889Z,94.24
2022-10-14T23:39:10.566Z,94.24
2022-10-14T23:41:39.108Z,94.22
2022-10-14T23:44:07.337Z,94.13
2022-10-14T23:46:35.539Z,94.27
2022-10-14T23:49:14.292Z,94.24
2022-10-14T23:51:52.436Z,94.16
2022-10-14T23:54:20.863Z,94.19
2022-10-14T23:56:49.122Z,94.24
2022-10-14T23:59:18.286Z,94.03
